Airfield :
LOGIN :

Register | Disclaimer

   EN    FR    IT 

 










Legend :    VFR   Marginal VFR   IFR   Intensive IFR   Very Intensive IFR
Visi :
Ceiling :
>= 8 km
>= 3000ft
5 to 8 km
1000 to 3000 ft
1500m to 5 km
500 to 1000 ft
800 to 1500m
200 to 500 ft
< 800m
< 200 ft
Symbols :   Thunderstorms  Fog  Heavy snow  Heavy precipitations  Wind > 20 kt
SIGMETs :     Misc.  Thunderstorms  Icing  Turbulence  Mountain Waves  Volcanic Ashes







- Airport Elevation : 286 ft
- IATA code : TRF


ENTO - Sandefjord , Torp

CURRENT METAR :
  • 191150Z 25013G24KT 210V300 CAVOK 19/04 Q1007

EXPIRED METARs :
  • 191120Z 25014G25KT 220V300 CAVOK 18/03 Q1007
  • 191050Z 24013G23KT 200V280 CAVOK 18/03 Q1007
  • 191020Z 24016G26KT CAVOK 18/02 Q1007
  • 190950Z 25011G21KT 220V280 CAVOK 18/04 Q1006
  • 190920Z 24016G27KT 9999 FEW040 17/03 Q1006

TAF TAF ENTO
Valid from the 19 at 12:00 until the 20 at 12:00 UTC


1912/2012 22015KT 9999 FEW040 SCT070
TEMPO 1912/1921 26018G28KT
BECMG 2009/2011 RA BKN014
No reported NOTAMs for that airfield.
2 SIGMETs reported for the Norway FIR (ENOR) :
 
Severe turbulence
ENOS SIGMET A04 VALID 191000/191400 ENMI
ENOR NORWAY FIR SEV TURB FCST WI N5900 E00915 - N5900 E00730 - N6200 E00730 - N6200 E00915 - N5900 E00915 SFC/FL100 STNR NC=
Severe turbulence
ENOS SIGMET A03 VALID 190900/191200 ENMI
ENOR NORWAY FIR SEV TURB FCST WI N5830 E01030 - N5900 E00730 - N6030 E00730 - N6000 E01230 - N5900 E01200 - N5830 E01030 FL230/380 MOV ENE 10KT WKN=



MET'MAP, your aeronautical weather chart ! - Copyright ORBIFLY December 2007 - Disclaimer

ORBIFLY MET'MAP TEAM :

Programming & Development : Alexandra Zaïnal
Concept & Development : Baudouin d'Aumeries
Co-Development & Prog : Marc-Olivier Méhu
Technical & hardware support : Manuel Goepfert

Contact : metmap@orbifly.com




SOURCES & CREDITS :

   NOAA